Flugplatz KLV - Wolfsberg (LOKW)

Hier findest Du alle Informationen zum Flugplatz KLV - Wolfsberg (LOKW).

Informationen für Piloten zum Flugplatz KLV - Wolfsberg

Hier findest Du alle relevanten Informationen, die Du als Pilot benötigst, um KLV - Wolfsberg anzufliegen.

Flugplatz: KLV - Wolfsberg ICAO-Code: LOKW
Frequenz Turm: 122500 Mhz GAFOR Gebiet: -
Frequenz Ground: 122500 Mhz Mogas: ja
Platzrunde: W 2700 ft Landegebühr: 10,- €
Platzhöhe: - Sunrise: 06:19 Uhr UTC
Pisten: 01/19 - 850 m x 30 m, GRAS Sunset: 16:09 Uhr UTC

Mitglieder, die in KLV - Wolfsberg fliegen

Flugwetter am Flugplatz KLV - Wolfsberg

Die METAR Information stammen aus EDDM (283.43 km entfernt).

METAR Code:
2022/12/22 09:20
EDDM 220920Z AUTO 22015KT 9999 FEW046 09/04 Q1012 TEMPO 23015G25KT SHRA

Flugschulen am Flugplatz KLV - Wolfsberg

Am Flugplatz KLV - Wolfsberg gibt es leider keine Flugschule.

Benachbarte Flugplätze und Flugschulen

Es gibt 2 weitere Flugplätze in einem Umkreis von 50 km um den Flugplatz KLV - Wolfsberg.

Flugplatz Friesach-Hirt LOKH 31.56 km
Flugplatz Mayerhofen LOKM 37.94 km
Jetzt anmelden

Passwort vergessen

Umfrage Archiv

Sendet Ihr ADS-B und/oder FLARM?

Ja
84.5 %
Nein
15.5 %
Stimmen: 277 | Diskussion
Anzeige: Roland Aircraft
Statistik Alle Mitglieder

Aktuell sind 49 Besucher online.

Anzeige: EasyVFR